sensor_id;sensor_type;location;lat;lon;timestamp;temperature;humidity
27506;DHT22;14939;43.596;1.320;2023-08-31T00:00:29;15.90;99.90
27506;DHT22;14939;43.596;1.320;2023-08-31T00:02:57;15.90;99.90
27506;DHT22;14939;43.596;1.320;2023-08-31T00:05:23;15.80;99.90
27506;DHT22;14939;43.596;1.320;2023-08-31T00:07:50;15.80;99.90
27506;DHT22;14939;43.596;1.320;2023-08-31T00:10:16;15.70;99.90
27506;DHT22;14939;43.596;1.320;2023-08-31T00:12:42;15.70;99.90
27506;DHT22;14939;43.596;1.320;2023-08-31T00:15:09;15.60;99.90
27506;DHT22;14939;43.596;1.320;2023-08-31T00:17:35;15.60;99.90
27506;DHT22;14939;43.596;1.320;2023-08-31T00:20:01;15.60;99.90
27506;DHT22;14939;43.596;1.320;2023-08-31T00:22:31;15.50;99.90
27506;DHT22;14939;43.596;1.320;2023-08-31T00:24:56;15.50;99.90
27506;DHT22;14939;43.596;1.320;2023-08-31T00:27:22;15.40;99.90
27506;DHT22;14939;43.596;1.320;2023-08-31T00:29:48;15.40;99.90
27506;DHT22;14939;43.596;1.320;2023-08-31T00:32:15;15.30;99.90
27506;DHT22;14939;43.596;1.320;2023-08-31T00:34:41;15.30;99.90
27506;DHT22;14939;43.596;1.320;2023-08-31T00:37:06;15.30;99.90
27506;DHT22;14939;43.596;1.320;2023-08-31T00:39:32;15.20;99.90
27506;DHT22;14939;43.596;1.320;2023-08-31T00:41:59;15.20;99.90
27506;DHT22;14939;43.596;1.320;2023-08-31T00:44:25;15.20;99.90
27506;DHT22;14939;43.596;1.320;2023-08-31T00:46:50;15.10;99.90
27506;DHT22;14939;43.596;1.320;2023-08-31T00:49:17;15.10;99.90
27506;DHT22;14939;43.596;1.320;2023-08-31T00:51:43;15.10;99.90
27506;DHT22;14939;43.596;1.320;2023-08-31T00:54:15;15.10;99.90
27506;DHT22;14939;43.596;1.320;2023-08-31T00:56:41;15.10;99.90
27506;DHT22;14939;43.596;1.320;2023-08-31T00:59:07;15.10;99.90
27506;DHT22;14939;43.596;1.320;2023-08-31T01:02:02;15.10;99.90
27506;DHT22;14939;43.596;1.320;2023-08-31T01:04:49;15.10;99.90
27506;DHT22;14939;43.596;1.320;2023-08-31T01:10:25;15.10;99.90
27506;DHT22;14939;43.596;1.320;2023-08-31T01:12:54;15.00;99.90
27506;DHT22;14939;43.596;1.320;2023-08-31T01:15:24;15.00;99.90
27506;DHT22;14939;43.596;1.320;2023-08-31T01:17:54;14.90;99.90
27506;DHT22;14939;43.596;1.320;2023-08-31T01:20:28;14.90;99.90
27506;DHT22;14939;43.596;1.320;2023-08-31T01:23:02;14.90;99.90
27506;DHT22;14939;43.596;1.320;2023-08-31T01:25:32;14.90;99.90
27506;DHT22;14939;43.596;1.320;2023-08-31T01:27:59;14.90;99.90
27506;DHT22;14939;43.596;1.320;2023-08-31T01:30:25;14.90;99.90
27506;DHT22;14939;43.596;1.320;2023-08-31T01:32:54;14.90;99.90
27506;DHT22;14939;43.596;1.320;2023-08-31T01:35:21;15.00;99.90
27506;DHT22;14939;43.596;1.320;2023-08-31T01:37:53;15.10;99.90
27506;DHT22;14939;43.596;1.320;2023-08-31T01:42:52;15.20;99.90
27506;DHT22;14939;43.596;1.320;2023-08-31T01:45:21;15.30;99.90
27506;DHT22;14939;43.596;1.320;2023-08-31T01:47:48;15.30;99.90
27506;DHT22;14939;43.596;1.320;2023-08-31T01:50:14;15.40;99.90
27506;DHT22;14939;43.596;1.320;2023-08-31T01:52:39;15.40;99.90
27506;DHT22;14939;43.596;1.320;2023-08-31T01:55:06;15.40;99.90
27506;DHT22;14939;43.596;1.320;2023-08-31T01:57:32;15.50;99.90
27506;DHT22;14939;43.596;1.320;2023-08-31T01:59:59;15.50;99.90
27506;DHT22;14939;43.596;1.320;2023-08-31T02:02:25;15.50;99.90
27506;DHT22;14939;43.596;1.320;2023-08-31T02:04:50;15.60;99.90
27506;DHT22;14939;43.596;1.320;2023-08-31T02:07:17;15.60;99.90
27506;DHT22;14939;43.596;1.320;2023-08-31T02:09:43;15.60;99.90
27506;DHT22;14939;43.596;1.320;2023-08-31T02:12:09;15.60;99.90
27506;DHT22;14939;43.596;1.320;2023-08-31T02:14:37;15.60;99.90
27506;DHT22;14939;43.596;1.320;2023-08-31T02:17:04;15.60;99.90
27506;DHT22;14939;43.596;1.320;2023-08-31T02:19:29;15.60;99.90
27506;DHT22;14939;43.596;1.320;2023-08-31T02:21:55;15.60;99.90
27506;DHT22;14939;43.596;1.320;2023-08-31T02:24:21;15.60;99.90
27506;DHT22;14939;43.596;1.320;2023-08-31T02:26:48;15.60;99.90
27506;DHT22;14939;43.596;1.320;2023-08-31T02:29:13;15.60;99.90
27506;DHT22;14939;43.596;1.320;2023-08-31T02:31:39;15.50;99.90
27506;DHT22;14939;43.596;1.320;2023-08-31T02:34:05;15.60;99.90
27506;DHT22;14939;43.596;1.320;2023-08-31T02:36:31;15.60;99.90
27506;DHT22;14939;43.596;1.320;2023-08-31T02:38:56;15.60;99.90
27506;DHT22;14939;43.596;1.320;2023-08-31T02:41:22;15.60;99.90
27506;DHT22;14939;43.596;1.320;2023-08-31T02:43:50;15.60;99.90
27506;DHT22;14939;43.596;1.320;2023-08-31T02:46:17;15.60;99.90
27506;DHT22;14939;43.596;1.320;2023-08-31T02:48:44;15.60;99.90
27506;DHT22;14939;43.596;1.320;2023-08-31T02:51:09;15.60;99.90
27506;DHT22;14939;43.596;1.320;2023-08-31T02:53:35;15.60;99.90
27506;DHT22;14939;43.596;1.320;2023-08-31T02:56:01;15.60;99.90
27506;DHT22;14939;43.596;1.320;2023-08-31T02:58:27;15.60;99.90
27506;DHT22;14939;43.596;1.320;2023-08-31T03:00:53;15.60;99.90
27506;DHT22;14939;43.596;1.320;2023-08-31T03:03:19;15.70;99.90
27506;DHT22;14939;43.596;1.320;2023-08-31T03:05:45;15.60;99.90
27506;DHT22;14939;43.596;1.320;2023-08-31T03:08:11;15.70;99.90
27506;DHT22;14939;43.596;1.320;2023-08-31T03:10:37;15.70;99.90
27506;DHT22;14939;43.596;1.320;2023-08-31T03:13:03;15.70;99.90
27506;DHT22;14939;43.596;1.320;2023-08-31T03:15:29;15.70;99.90
27506;DHT22;14939;43.596;1.320;2023-08-31T03:17:55;15.70;99.90
27506;DHT22;14939;43.596;1.320;2023-08-31T03:20:21;15.70;99.90
27506;DHT22;14939;43.596;1.320;2023-08-31T03:22:46;15.60;99.90
27506;DHT22;14939;43.596;1.320;2023-08-31T03:25:12;15.60;99.90
27506;DHT22;14939;43.596;1.320;2023-08-31T03:27:38;15.60;99.90
27506;DHT22;14939;43.596;1.320;2023-08-31T03:30:03;15.60;99.90
27506;DHT22;14939;43.596;1.320;2023-08-31T03:32:29;15.50;99.90
27506;DHT22;14939;43.596;1.320;2023-08-31T03:34:55;15.50;99.90
27506;DHT22;14939;43.596;1.320;2023-08-31T03:37:21;15.50;99.90
27506;DHT22;14939;43.596;1.320;2023-08-31T03:39:50;15.40;99.90
27506;DHT22;14939;43.596;1.320;2023-08-31T03:42:16;15.30;99.90
27506;DHT22;14939;43.596;1.320;2023-08-31T03:44:41;15.30;99.90
27506;DHT22;14939;43.596;1.320;2023-08-31T03:47:07;15.20;99.90
27506;DHT22;14939;43.596;1.320;2023-08-31T03:49:33;15.20;99.90
27506;DHT22;14939;43.596;1.320;2023-08-31T03:52:00;15.10;99.90
27506;DHT22;14939;43.596;1.320;2023-08-31T03:54:26;15.10;99.90
27506;DHT22;14939;43.596;1.320;2023-08-31T03:56:52;15.10;99.90
27506;DHT22;14939;43.596;1.320;2023-08-31T03:59:17;15.10;99.90
27506;DHT22;14939;43.596;1.320;2023-08-31T04:01:43;15.00;99.90
27506;DHT22;14939;43.596;1.320;2023-08-31T04:04:09;15.00;99.90
27506;DHT22;14939;43.596;1.320;2023-08-31T04:06:35;15.00;99.90
27506;DHT22;14939;43.596;1.320;2023-08-31T04:09:00;14.90;99.90
27506;DHT22;14939;43.596;1.320;2023-08-31T04:11:26;14.90;99.90
27506;DHT22;14939;43.596;1.320;2023-08-31T04:13:52;14.80;99.90
27506;DHT22;14939;43.596;1.320;2023-08-31T04:16:18;14.70;99.90
27506;DHT22;14939;43.596;1.320;2023-08-31T04:18:44;14.80;99.90
27506;DHT22;14939;43.596;1.320;2023-08-31T04:21:17;14.70;99.90
27506;DHT22;14939;43.596;1.320;2023-08-31T04:23:42;14.70;99.90
27506;DHT22;14939;43.596;1.320;2023-08-31T04:26:14;14.70;99.90
27506;DHT22;14939;43.596;1.320;2023-08-31T04:32:04;14.80;99.90
27506;DHT22;14939;43.596;1.320;2023-08-31T04:34:29;14.80;99.90
27506;DHT22;14939;43.596;1.320;2023-08-31T04:36:55;14.80;99.90
27506;DHT22;14939;43.596;1.320;2023-08-31T04:39:21;14.70;99.90
27506;DHT22;14939;43.596;1.320;2023-08-31T04:41:46;14.70;99.90
27506;DHT22;14939;43.596;1.320;2023-08-31T04:44:12;14.70;99.90
27506;DHT22;14939;43.596;1.320;2023-08-31T04:46:38;14.70;99.90
27506;DHT22;14939;43.596;1.320;2023-08-31T04:49:04;14.70;99.90
27506;DHT22;14939;43.596;1.320;2023-08-31T04:51:31;14.60;99.90
27506;DHT22;14939;43.596;1.320;2023-08-31T04:53:58;14.60;99.90
27506;DHT22;14939;43.596;1.320;2023-08-31T04:56:24;14.50;99.90
27506;DHT22;14939;43.596;1.320;2023-08-31T04:58:49;14.50;99.90
27506;DHT22;14939;43.596;1.320;2023-08-31T05:01:15;14.50;99.90
27506;DHT22;14939;43.596;1.320;2023-08-31T05:03:41;14.40;99.90
27506;DHT22;14939;43.596;1.320;2023-08-31T05:06:07;14.40;99.90
27506;DHT22;14939;43.596;1.320;2023-08-31T05:08:33;14.50;99.90
27506;DHT22;14939;43.596;1.320;2023-08-31T05:10:59;14.60;99.90
27506;DHT22;14939;43.596;1.320;2023-08-31T05:13:25;14.60;99.90
27506;DHT22;14939;43.596;1.320;2023-08-31T05:15:50;14.60;99.90
27506;DHT22;14939;43.596;1.320;2023-08-31T05:18:16;14.60;99.90
27506;DHT22;14939;43.596;1.320;2023-08-31T05:20:45;14.60;99.90
27506;DHT22;14939;43.596;1.320;2023-08-31T05:23:11;14.70;99.90
27506;DHT22;14939;43.596;1.320;2023-08-31T05:25:44;14.70;99.90
27506;DHT22;14939;43.596;1.320;2023-08-31T05:28:10;14.70;99.90
27506;DHT22;14939;43.596;1.320;2023-08-31T05:30:35;14.80;99.90
27506;DHT22;14939;43.596;1.320;2023-08-31T05:33:02;14.80;99.90
27506;DHT22;14939;43.596;1.320;2023-08-31T05:35:29;14.80;99.90
27506;DHT22;14939;43.596;1.320;2023-08-31T05:37:55;14.90;99.90
27506;DHT22;14939;43.596;1.320;2023-08-31T05:40:21;14.80;99.90
27506;DHT22;14939;43.596;1.320;2023-08-31T05:42:47;14.80;99.90
27506;DHT22;14939;43.596;1.320;2023-08-31T05:45:13;14.70;99.90
27506;DHT22;14939;43.596;1.320;2023-08-31T05:47:40;14.70;99.90
27506;DHT22;14939;43.596;1.320;2023-08-31T05:50:06;14.70;99.90
27506;DHT22;14939;43.596;1.320;2023-08-31T05:52:32;14.70;99.90
27506;DHT22;14939;43.596;1.320;2023-08-31T05:54:58;14.70;99.90
27506;DHT22;14939;43.596;1.320;2023-08-31T05:57:26;14.70;99.90
27506;DHT22;14939;43.596;1.320;2023-08-31T05:59:53;14.70;99.90
27506;DHT22;14939;43.596;1.320;2023-08-31T06:02:19;14.70;99.90
27506;DHT22;14939;43.596;1.320;2023-08-31T06:04:44;14.80;99.90
27506;DHT22;14939;43.596;1.320;2023-08-31T06:07:10;14.80;99.90
27506;DHT22;14939;43.596;1.320;2023-08-31T06:09:36;14.90;99.90
27506;DHT22;14939;43.596;1.320;2023-08-31T06:12:04;14.90;99.90
27506;DHT22;14939;43.596;1.320;2023-08-31T06:14:29;14.90;99.90
27506;DHT22;14939;43.596;1.320;2023-08-31T06:16:55;15.10;99.90
27506;DHT22;14939;43.596;1.320;2023-08-31T06:19:21;15.20;99.90
27506;DHT22;14939;43.596;1.320;2023-08-31T06:21:46;15.40;99.90
27506;DHT22;14939;43.596;1.320;2023-08-31T06:24:13;15.60;99.90
27506;DHT22;14939;43.596;1.320;2023-08-31T06:26:40;15.80;99.90
27506;DHT22;14939;43.596;1.320;2023-08-31T06:29:05;16.00;99.90
27506;DHT22;14939;43.596;1.320;2023-08-31T06:31:31;16.10;99.90
27506;DHT22;14939;43.596;1.320;2023-08-31T06:33:57;16.20;99.90
27506;DHT22;14939;43.596;1.320;2023-08-31T06:36:23;16.30;99.90
27506;DHT22;14939;43.596;1.320;2023-08-31T06:38:49;16.40;99.90
27506;DHT22;14939;43.596;1.320;2023-08-31T06:41:15;16.40;99.90
27506;DHT22;14939;43.596;1.320;2023-08-31T06:43:41;16.40;99.90
27506;DHT22;14939;43.596;1.320;2023-08-31T06:46:07;16.40;99.90
27506;DHT22;14939;43.596;1.320;2023-08-31T06:48:32;16.50;99.90
27506;DHT22;14939;43.596;1.320;2023-08-31T06:50:58;16.60;99.90
27506;DHT22;14939;43.596;1.320;2023-08-31T06:53:24;16.70;99.90
27506;DHT22;14939;43.596;1.320;2023-08-31T06:55:50;16.70;99.90
27506;DHT22;14939;43.596;1.320;2023-08-31T06:58:15;16.70;99.90
27506;DHT22;14939;43.596;1.320;2023-08-31T07:00:41;16.80;99.90
27506;DHT22;14939;43.596;1.320;2023-08-31T07:03:07;16.90;99.90
27506;DHT22;14939;43.596;1.320;2023-08-31T07:05:41;16.90;99.90
27506;DHT22;14939;43.596;1.320;2023-08-31T07:08:07;17.00;99.90
27506;DHT22;14939;43.596;1.320;2023-08-31T07:10:34;17.00;99.90
27506;DHT22;14939;43.596;1.320;2023-08-31T07:13:02;17.00;99.90
27506;DHT22;14939;43.596;1.320;2023-08-31T07:15:29;16.90;99.90
27506;DHT22;14939;43.596;1.320;2023-08-31T07:17:55;16.90;99.90
27506;DHT22;14939;43.596;1.320;2023-08-31T07:20:20;16.80;99.90
27506;DHT22;14939;43.596;1.320;2023-08-31T07:22:46;16.80;99.90
27506;DHT22;14939;43.596;1.320;2023-08-31T07:25:12;16.70;99.90
27506;DHT22;14939;43.596;1.320;2023-08-31T07:27:38;16.60;99.90
27506;DHT22;14939;43.596;1.320;2023-08-31T07:30:04;16.70;99.90
27506;DHT22;14939;43.596;1.320;2023-08-31T07:32:31;16.80;99.90
27506;DHT22;14939;43.596;1.320;2023-08-31T07:34:57;16.80;99.90
27506;DHT22;14939;43.596;1.320;2023-08-31T07:37:23;16.80;99.90
27506;DHT22;14939;43.596;1.320;2023-08-31T07:39:48;16.80;99.90
27506;DHT22;14939;43.596;1.320;2023-08-31T07:42:14;16.80;99.90
27506;DHT22;14939;43.596;1.320;2023-08-31T07:44:40;16.90;99.90
27506;DHT22;14939;43.596;1.320;2023-08-31T07:47:07;17.00;99.90
27506;DHT22;14939;43.596;1.320;2023-08-31T07:49:33;17.00;99.90
27506;DHT22;14939;43.596;1.320;2023-08-31T07:51:59;17.10;99.90
27506;DHT22;14939;43.596;1.320;2023-08-31T07:54:24;17.10;99.90
27506;DHT22;14939;43.596;1.320;2023-08-31T07:56:51;17.20;99.90
27506;DHT22;14939;43.596;1.320;2023-08-31T07:59:17;17.10;99.90
27506;DHT22;14939;43.596;1.320;2023-08-31T08:01:43;17.30;99.90
27506;DHT22;14939;43.596;1.320;2023-08-31T08:04:11;17.30;99.90
27506;DHT22;14939;43.596;1.320;2023-08-31T08:06:36;17.40;99.90
27506;DHT22;14939;43.596;1.320;2023-08-31T08:09:03;17.40;99.90
27506;DHT22;14939;43.596;1.320;2023-08-31T08:11:30;17.50;99.90
27506;DHT22;14939;43.596;1.320;2023-08-31T08:13:56;17.60;99.80
27506;DHT22;14939;43.596;1.320;2023-08-31T08:16:21;17.90;99.30
27506;DHT22;14939;43.596;1.320;2023-08-31T08:18:47;18.10;98.30
27506;DHT22;14939;43.596;1.320;2023-08-31T08:21:13;18.00;97.90
27506;DHT22;14939;43.596;1.320;2023-08-31T08:23:38;18.20;98.90
27506;DHT22;14939;43.596;1.320;2023-08-31T08:26:04;18.30;96.60
27506;DHT22;14939;43.596;1.320;2023-08-31T08:28:30;18.40;97.30
27506;DHT22;14939;43.596;1.320;2023-08-31T08:30:55;18.20;95.70
27506;DHT22;14939;43.596;1.320;2023-08-31T08:33:21;18.20;96.10
27506;DHT22;14939;43.596;1.320;2023-08-31T08:35:47;18.10;96.60
27506;DHT22;14939;43.596;1.320;2023-08-31T08:38:12;18.20;96.20
27506;DHT22;14939;43.596;1.320;2023-08-31T08:40:38;18.50;95.60
27506;DHT22;14939;43.596;1.320;2023-08-31T08:43:07;18.80;94.30
27506;DHT22;14939;43.596;1.320;2023-08-31T08:45:37;19.00;93.90
27506;DHT22;14939;43.596;1.320;2023-08-31T08:48:08;19.10;94.00
27506;DHT22;14939;43.596;1.320;2023-08-31T08:50:36;19.00;92.90
27506;DHT22;14939;43.596;1.320;2023-08-31T08:53:03;19.00;92.90
27506;DHT22;14939;43.596;1.320;2023-08-31T08:55:29;19.30;93.20
27506;DHT22;14939;43.596;1.320;2023-08-31T08:57:57;19.20;92.20
27506;DHT22;14939;43.596;1.320;2023-08-31T09:00:23;19.30;90.90
27506;DHT22;14939;43.596;1.320;2023-08-31T09:02:49;19.30;91.60
27506;DHT22;14939;43.596;1.320;2023-08-31T09:05:14;19.30;90.00
27506;DHT22;14939;43.596;1.320;2023-08-31T09:08:01;19.60;89.00
27506;DHT22;14939;43.596;1.320;2023-08-31T09:10:37;19.40;88.00
27506;DHT22;14939;43.596;1.320;2023-08-31T09:13:13;21.20;90.00
27506;DHT22;14939;43.596;1.320;2023-08-31T09:15:45;19.90;85.50
27506;DHT22;14939;43.596;1.320;2023-08-31T09:18:24;20.10;83.60
27506;DHT22;14939;43.596;1.320;2023-08-31T09:20:51;20.80;78.30
27506;DHT22;14939;43.596;1.320;2023-08-31T09:23:17;20.50;77.00
27506;DHT22;14939;43.596;1.320;2023-08-31T09:25:47;21.30;86.70
27506;DHT22;14939;43.596;1.320;2023-08-31T09:28:20;20.90;76.50
27506;DHT22;14939;43.596;1.320;2023-08-31T09:30:47;21.00;75.30
27506;DHT22;14939;43.596;1.320;2023-08-31T09:33:18;21.00;74.60
27506;DHT22;14939;43.596;1.320;2023-08-31T09:35:48;20.80;76.40
27506;DHT22;14939;43.596;1.320;2023-08-31T09:38:15;20.80;75.50
27506;DHT22;14939;43.596;1.320;2023-08-31T09:40:40;21.20;81.70
27506;DHT22;14939;43.596;1.320;2023-08-31T09:43:06;20.50;73.00
27506;DHT22;14939;43.596;1.320;2023-08-31T09:45:34;20.30;71.90
27506;DHT22;14939;43.596;1.320;2023-08-31T09:48:01;20.30;71.30
27506;DHT22;14939;43.596;1.320;2023-08-31T09:50:32;20.60;69.60
27506;DHT22;14939;43.596;1.320;2023-08-31T09:53:10;21.00;67.90
27506;DHT22;14939;43.596;1.320;2023-08-31T09:55:36;21.00;67.30
27506;DHT22;14939;43.596;1.320;2023-08-31T09:58:06;21.00;70.10
27506;DHT22;14939;43.596;1.320;2023-08-31T10:00:33;20.90;69.30
27506;DHT22;14939;43.596;1.320;2023-08-31T10:03:03;20.70;67.70
27506;DHT22;14939;43.596;1.320;2023-08-31T10:05:29;20.50;70.10
27506;DHT22;14939;43.596;1.320;2023-08-31T10:07:55;20.40;72.60
27506;DHT22;14939;43.596;1.320;2023-08-31T10:10:22;20.40;69.40
27506;DHT22;14939;43.596;1.320;2023-08-31T10:12:51;20.50;69.20
27506;DHT22;14939;43.596;1.320;2023-08-31T10:15:18;20.70;67.90
27506;DHT22;14939;43.596;1.320;2023-08-31T10:17:45;21.00;66.30
27506;DHT22;14939;43.596;1.320;2023-08-31T10:20:13;21.00;64.50
27506;DHT22;14939;43.596;1.320;2023-08-31T10:22:39;21.00;63.90
27506;DHT22;14939;43.596;1.320;2023-08-31T10:25:06;21.00;64.10
27506;DHT22;14939;43.596;1.320;2023-08-31T10:27:39;20.90;65.10
27506;DHT22;14939;43.596;1.320;2023-08-31T10:35:52;21.40;63.40
27506;DHT22;14939;43.596;1.320;2023-08-31T10:38:26;21.30;61.30
27506;DHT22;14939;43.596;1.320;2023-08-31T10:43:59;21.00;62.20
27506;DHT22;14939;43.596;1.320;2023-08-31T10:46:30;21.30;63.00
27506;DHT22;14939;43.596;1.320;2023-08-31T10:51:35;21.70;63.40
27506;DHT22;14939;43.596;1.320;2023-08-31T10:54:12;21.80;60.50
27506;DHT22;14939;43.596;1.320;2023-08-31T10:56:54;22.00;60.90
27506;DHT22;14939;43.596;1.320;2023-08-31T10:59:21;21.90;59.40
27506;DHT22;14939;43.596;1.320;2023-08-31T11:01:57;21.90;59.20
27506;DHT22;14939;43.596;1.320;2023-08-31T11:04:25;21.90;58.50
27506;DHT22;14939;43.596;1.320;2023-08-31T11:07:16;22.00;58.80
27506;DHT22;14939;43.596;1.320;2023-08-31T11:09:43;22.10;58.80
27506;DHT22;14939;43.596;1.320;2023-08-31T11:12:10;22.10;56.80
27506;DHT22;14939;43.596;1.320;2023-08-31T11:14:36;22.10;56.00
27506;DHT22;14939;43.596;1.320;2023-08-31T11:17:02;22.30;58.20
27506;DHT22;14939;43.596;1.320;2023-08-31T11:19:30;22.50;56.10
27506;DHT22;14939;43.596;1.320;2023-08-31T11:21:57;22.60;55.60
27506;DHT22;14939;43.596;1.320;2023-08-31T11:24:23;22.60;55.80
27506;DHT22;14939;43.596;1.320;2023-08-31T11:26:52;22.50;54.70
27506;DHT22;14939;43.596;1.320;2023-08-31T11:29:18;22.40;55.00
27506;DHT22;14939;43.596;1.320;2023-08-31T11:31:44;22.30;55.30
27506;DHT22;14939;43.596;1.320;2023-08-31T11:34:17;22.30;54.80
27506;DHT22;14939;43.596;1.320;2023-08-31T11:36:45;22.30;55.70
27506;DHT22;14939;43.596;1.320;2023-08-31T11:39:15;22.50;54.20
27506;DHT22;14939;43.596;1.320;2023-08-31T11:41:43;22.70;54.50
27506;DHT22;14939;43.596;1.320;2023-08-31T11:44:13;22.90;54.50
27506;DHT22;14939;43.596;1.320;2023-08-31T11:46:42;23.00;54.00
27506;DHT22;14939;43.596;1.320;2023-08-31T11:49:09;23.10;54.30
27506;DHT22;14939;43.596;1.320;2023-08-31T11:51:36;23.10;55.40
27506;DHT22;14939;43.596;1.320;2023-08-31T11:54:03;23.20;52.70
27506;DHT22;14939;43.596;1.320;2023-08-31T11:56:58;23.10;52.80
27506;DHT22;14939;43.596;1.320;2023-08-31T11:59:24;23.10;52.50
27506;DHT22;14939;43.596;1.320;2023-08-31T12:01:50;23.10;52.20
27506;DHT22;14939;43.596;1.320;2023-08-31T12:04:22;23.20;52.80
27506;DHT22;14939;43.596;1.320;2023-08-31T12:06:50;23.30;52.00
27506;DHT22;14939;43.596;1.320;2023-08-31T12:09:16;23.30;50.90
27506;DHT22;14939;43.596;1.320;2023-08-31T12:11:42;23.30;50.30
27506;DHT22;14939;43.596;1.320;2023-08-31T12:14:18;23.30;50.60
27506;DHT22;14939;43.596;1.320;2023-08-31T12:16:44;23.30;50.50
27506;DHT22;14939;43.596;1.320;2023-08-31T12:19:10;23.40;51.60
27506;DHT22;14939;43.596;1.320;2023-08-31T12:21:36;23.40;49.70
27506;DHT22;14939;43.596;1.320;2023-08-31T12:24:02;23.40;48.50
27506;DHT22;14939;43.596;1.320;2023-08-31T12:26:28;23.50;49.40
27506;DHT22;14939;43.596;1.320;2023-08-31T12:28:54;23.40;48.60
27506;DHT22;14939;43.596;1.320;2023-08-31T12:31:21;23.50;48.70
27506;DHT22;14939;43.596;1.320;2023-08-31T12:33:47;23.40;48.40
27506;DHT22;14939;43.596;1.320;2023-08-31T12:36:13;23.40;49.70
27506;DHT22;14939;43.596;1.320;2023-08-31T12:38:39;23.30;48.50
27506;DHT22;14939;43.596;1.320;2023-08-31T12:41:05;23.50;50.10
27506;DHT22;14939;43.596;1.320;2023-08-31T12:43:31;23.70;48.60
27506;DHT22;14939;43.596;1.320;2023-08-31T12:45:57;23.70;48.70
27506;DHT22;14939;43.596;1.320;2023-08-31T12:48:23;23.90;47.30
27506;DHT22;14939;43.596;1.320;2023-08-31T12:50:49;23.80;48.00
27506;DHT22;14939;43.596;1.320;2023-08-31T12:53:15;23.90;48.20
27506;DHT22;14939;43.596;1.320;2023-08-31T12:55:40;23.90;47.40
27506;DHT22;14939;43.596;1.320;2023-08-31T12:58:06;23.80;48.30
27506;DHT22;14939;43.596;1.320;2023-08-31T13:00:32;23.70;48.00
27506;DHT22;14939;43.596;1.320;2023-08-31T13:02:59;23.60;48.40
27506;DHT22;14939;43.596;1.320;2023-08-31T13:05:25;23.60;48.90
27506;DHT22;14939;43.596;1.320;2023-08-31T13:07:53;23.80;50.30
27506;DHT22;14939;43.596;1.320;2023-08-31T13:10:18;24.10;49.90
27506;DHT22;14939;43.596;1.320;2023-08-31T13:12:44;24.20;49.40
27506;DHT22;14939;43.596;1.320;2023-08-31T13:15:10;24.20;48.40
27506;DHT22;14939;43.596;1.320;2023-08-31T13:17:35;24.30;48.10
27506;DHT22;14939;43.596;1.320;2023-08-31T13:20:01;24.40;48.20
27506;DHT22;14939;43.596;1.320;2023-08-31T13:22:28;24.40;48.10
27506;DHT22;14939;43.596;1.320;2023-08-31T13:24:54;24.30;47.10
27506;DHT22;14939;43.596;1.320;2023-08-31T13:27:20;24.40;47.40
27506;DHT22;14939;43.596;1.320;2023-08-31T13:29:45;24.50;46.60
27506;DHT22;14939;43.596;1.320;2023-08-31T13:32:11;24.50;48.20
27506;DHT22;14939;43.596;1.320;2023-08-31T13:34:37;24.40;46.80
27506;DHT22;14939;43.596;1.320;2023-08-31T13:37:03;24.50;47.20
27506;DHT22;14939;43.596;1.320;2023-08-31T13:39:34;24.40;46.60
27506;DHT22;14939;43.596;1.320;2023-08-31T13:42:01;24.50;46.30
27506;DHT22;14939;43.596;1.320;2023-08-31T13:44:29;24.50;46.80
27506;DHT22;14939;43.596;1.320;2023-08-31T13:46:55;24.60;46.40
27506;DHT22;14939;43.596;1.320;2023-08-31T13:49:20;24.70;46.40
27506;DHT22;14939;43.596;1.320;2023-08-31T13:51:46;24.60;45.80
27506;DHT22;14939;43.596;1.320;2023-08-31T13:54:11;24.50;46.10
27506;DHT22;14939;43.596;1.320;2023-08-31T13:56:37;24.80;46.20
27506;DHT22;14939;43.596;1.320;2023-08-31T13:59:03;24.90;45.30
27506;DHT22;14939;43.596;1.320;2023-08-31T14:01:29;24.90;45.60
27506;DHT22;14939;43.596;1.320;2023-08-31T14:03:55;25.00;47.60
27506;DHT22;14939;43.596;1.320;2023-08-31T14:06:21;25.20;45.60
27506;DHT22;14939;43.596;1.320;2023-08-31T14:08:46;25.00;44.90
27506;DHT22;14939;43.596;1.320;2023-08-31T14:11:13;24.90;44.70
27506;DHT22;14939;43.596;1.320;2023-08-31T14:13:39;25.00;45.80
27506;DHT22;14939;43.596;1.320;2023-08-31T14:16:06;25.20;44.80
27506;DHT22;14939;43.596;1.320;2023-08-31T14:18:32;25.10;44.80
27506;DHT22;14939;43.596;1.320;2023-08-31T14:20:58;25.10;45.40
27506;DHT22;14939;43.596;1.320;2023-08-31T14:23:25;25.20;44.50
27506;DHT22;14939;43.596;1.320;2023-08-31T14:25:51;25.40;45.20
27506;DHT22;14939;43.596;1.320;2023-08-31T14:28:16;25.50;42.90
27506;DHT22;14939;43.596;1.320;2023-08-31T14:30:42;25.60;43.40
27506;DHT22;14939;43.596;1.320;2023-08-31T14:33:08;25.70;43.90
27506;DHT22;14939;43.596;1.320;2023-08-31T14:35:37;25.90;43.00
27506;DHT22;14939;43.596;1.320;2023-08-31T14:38:03;25.80;42.10
27506;DHT22;14939;43.596;1.320;2023-08-31T14:40:29;25.80;43.10
27506;DHT22;14939;43.596;1.320;2023-08-31T14:42:55;25.80;42.00
27506;DHT22;14939;43.596;1.320;2023-08-31T14:45:20;26.10;43.00
27506;DHT22;14939;43.596;1.320;2023-08-31T14:47:46;26.70;40.40
27506;DHT22;14939;43.596;1.320;2023-08-31T14:50:12;28.80;37.20
27506;DHT22;14939;43.596;1.320;2023-08-31T14:52:38;30.50;33.20
27506;DHT22;14939;43.596;1.320;2023-08-31T14:55:04;30.70;30.70
27506;DHT22;14939;43.596;1.320;2023-08-31T14:57:30;32.20;27.90
27506;DHT22;14939;43.596;1.320;2023-08-31T14:59:56;32.10;27.70
27506;DHT22;14939;43.596;1.320;2023-08-31T15:02:24;31.40;27.40
27506;DHT22;14939;43.596;1.320;2023-08-31T15:04:50;32.00;26.00
27506;DHT22;14939;43.596;1.320;2023-08-31T15:07:16;32.00;25.70
27506;DHT22;14939;43.596;1.320;2023-08-31T15:09:42;32.40;24.10
27506;DHT22;14939;43.596;1.320;2023-08-31T15:12:08;33.70;23.50
27506;DHT22;14939;43.596;1.320;2023-08-31T15:14:34;34.50;20.80
27506;DHT22;14939;43.596;1.320;2023-08-31T15:16:59;34.10;20.40
27506;DHT22;14939;43.596;1.320;2023-08-31T15:19:25;35.10;20.40
27506;DHT22;14939;43.596;1.320;2023-08-31T15:21:51;34.50;19.10
27506;DHT22;14939;43.596;1.320;2023-08-31T15:24:16;33.80;19.50
27506;DHT22;14939;43.596;1.320;2023-08-31T15:26:42;34.00;18.80
27506;DHT22;14939;43.596;1.320;2023-08-31T15:29:09;33.40;19.20
27506;DHT22;14939;43.596;1.320;2023-08-31T15:31:35;32.70;19.20
27506;DHT22;14939;43.596;1.320;2023-08-31T15:34:01;32.10;20.70
27506;DHT22;14939;43.596;1.320;2023-08-31T15:36:26;31.90;20.90
27506;DHT22;14939;43.596;1.320;2023-08-31T15:38:52;32.10;21.50
27506;DHT22;14939;43.596;1.320;2023-08-31T15:41:18;32.60;20.70
27506;DHT22;14939;43.596;1.320;2023-08-31T15:43:44;32.40;20.80
27506;DHT22;14939;43.596;1.320;2023-08-31T15:46:10;31.10;22.30
27506;DHT22;14939;43.596;1.320;2023-08-31T15:48:35;30.80;24.30